createdAt,value
2022-07-29T00:00:56.000Z,60.31
2022-07-29T00:01:56.000Z,60.71
2022-07-29T00:02:56.000Z,61.21
2022-07-29T00:03:56.000Z,61.01
2022-07-29T00:04:56.000Z,60.41
2022-07-29T00:05:56.000Z,60.71
2022-07-29T00:06:56.000Z,61.21
2022-07-29T00:07:56.000Z,61.01
2022-07-29T00:08:56.000Z,61.01
2022-07-29T00:09:56.000Z,61.72
2022-07-29T00:10:56.000Z,61.61
2022-07-29T00:11:56.000Z,61.82
2022-07-29T00:12:56.000Z,61.92
2022-07-29T00:13:56.000Z,62.02
2022-07-29T00:14:56.000Z,62.12
2022-07-29T00:15:56.000Z,60.61
2022-07-29T00:16:56.000Z,60.71
2022-07-29T00:17:55.000Z,60.61
2022-07-29T00:18:55.000Z,61.21
2022-07-29T00:19:55.000Z,61.01
2022-07-29T00:20:55.000Z,61.52
2022-07-29T00:21:55.000Z,62.02
2022-07-29T00:22:55.000Z,61.41
2022-07-29T00:23:55.000Z,61.65
2022-07-29T00:24:55.000Z,61.95
2022-07-29T00:25:55.000Z,61.44
2022-07-29T00:26:55.000Z,61.95
2022-07-29T00:27:55.000Z,61.65
2022-07-29T00:28:55.000Z,61.85
2022-07-29T00:29:55.000Z,62.05
2022-07-29T00:30:55.000Z,61.65
2022-07-29T00:31:55.000Z,62.15
2022-07-29T00:32:55.000Z,63.46
2022-07-29T00:33:55.000Z,64.27
2022-07-29T00:34:55.000Z,64.67
2022-07-29T00:35:55.000Z,65.38
2022-07-29T00:36:55.000Z,63.67
2022-07-29T00:37:55.000Z,64.98
2022-07-29T00:38:55.000Z,64.47
2022-07-29T00:39:55.000Z,64.78
2022-07-29T00:40:55.000Z,63.96
2022-07-29T00:41:55.000Z,62.68
2022-07-29T00:42:55.000Z,62.59
2022-07-29T00:43:55.000Z,62.79
2022-07-29T00:44:55.000Z,62.79
2022-07-29T00:45:55.000Z,63.49
2022-07-29T00:46:55.000Z,62.99
2022-07-29T00:47:55.000Z,62.88
2022-07-29T00:48:55.000Z,62.18
2022-07-29T00:49:55.000Z,62.59
2022-07-29T00:50:55.000Z,62.88
2022-07-29T00:51:55.000Z,63.19
2022-07-29T00:52:55.000Z,63.49
2022-07-29T00:53:55.000Z,63.39
2022-07-29T00:54:55.000Z,63.29
2022-07-29T00:55:55.000Z,63.39
2022-07-29T00:56:55.000Z,63.09
2022-07-29T00:57:55.000Z,63.39
2022-07-29T00:58:55.000Z,64.30
2022-07-29T00:59:55.000Z,64.10
2022-07-29T01:00:55.000Z,64.00
2022-07-29T01:01:55.000Z,64.40
2022-07-29T01:02:55.000Z,63.79
2022-07-29T01:03:55.000Z,64.00
2022-07-29T01:04:55.000Z,63.79
2022-07-29T01:05:55.000Z,63.59
2022-07-29T01:06:55.000Z,63.09
2022-07-29T01:07:55.000Z,63.19
2022-07-29T01:08:55.000Z,63.49
2022-07-29T01:09:55.000Z,63.49
2022-07-29T01:10:55.000Z,62.88
2022-07-29T01:11:55.000Z,63.70
2022-07-29T01:12:55.000Z,63.79
2022-07-29T01:13:55.000Z,63.79
2022-07-29T01:14:55.000Z,63.59
2022-07-29T01:15:55.000Z,63.79
2022-07-29T01:16:55.000Z,63.79
2022-07-29T01:17:55.000Z,63.49
2022-07-29T01:18:55.000Z,63.90
2022-07-29T01:19:55.000Z,63.70
2022-07-29T01:20:55.000Z,64.20
2022-07-29T01:21:55.000Z,63.59
2022-07-29T01:22:55.000Z,63.19
2022-07-29T01:23:55.000Z,63.29
2022-07-29T01:24:55.000Z,63.19
2022-07-29T01:25:55.000Z,63.39
2022-07-29T01:26:55.000Z,64.00
2022-07-29T01:27:55.000Z,65.11
2022-07-29T01:28:55.000Z,64.50
2022-07-29T01:29:55.000Z,64.10
2022-07-29T01:30:55.000Z,64.00
2022-07-29T01:31:55.000Z,63.79
2022-07-29T01:32:55.000Z,63.90
2022-07-29T01:33:55.000Z,64.00
2022-07-29T01:34:55.000Z,64.20
2022-07-29T01:35:55.000Z,64.10
2022-07-29T01:36:55.000Z,63.90
2022-07-29T01:37:55.000Z,64.00
2022-07-29T01:38:55.000Z,64.10
2022-07-29T01:39:55.000Z,64.10
2022-07-29T01:40:55.000Z,63.59
2022-07-29T01:41:55.000Z,63.59
2022-07-29T01:42:55.000Z,63.79
2022-07-29T01:43:55.000Z,63.59
2022-07-29T01:44:55.000Z,63.49
2022-07-29T01:45:55.000Z,64.10
2022-07-29T01:46:55.000Z,63.70
2022-07-29T01:47:55.000Z,63.49
2022-07-29T01:48:55.000Z,63.39
2022-07-29T01:49:55.000Z,64.10
2022-07-29T01:50:55.000Z,63.90
2022-07-29T01:51:55.000Z,63.90
2022-07-29T01:52:54.000Z,64.10
2022-07-29T01:53:54.000Z,63.70
2022-07-29T01:54:54.000Z,63.70
2022-07-29T01:55:54.000Z,63.90
2022-07-29T01:56:54.000Z,64.10
2022-07-29T01:57:54.000Z,63.90
2022-07-29T01:58:54.000Z,63.90
2022-07-29T01:59:54.000Z,64.30
2022-07-29T02:00:54.000Z,64.03
2022-07-29T02:01:54.000Z,64.10
2022-07-29T02:02:54.000Z,63.79
2022-07-29T02:03:54.000Z,63.70
2022-07-29T02:04:54.000Z,63.82
2022-07-29T02:05:54.000Z,63.52
2022-07-29T02:06:54.000Z,63.73
2022-07-29T02:07:54.000Z,63.70
2022-07-29T02:08:54.000Z,63.42
2022-07-29T02:09:54.000Z,63.32
2022-07-29T02:10:54.000Z,63.32
2022-07-29T02:11:54.000Z,63.62
2022-07-29T02:12:54.000Z,64.13
2022-07-29T02:13:54.000Z,64.33
2022-07-29T02:14:54.000Z,64.13
2022-07-29T02:15:54.000Z,64.03
2022-07-29T02:16:54.000Z,64.43
2022-07-29T02:17:54.000Z,65.14
2022-07-29T02:18:54.000Z,64.23
2022-07-29T02:19:54.000Z,64.73
2022-07-29T02:20:54.000Z,65.14
2022-07-29T02:21:54.000Z,64.53
2022-07-29T02:22:54.000Z,64.73
2022-07-29T02:23:54.000Z,64.97
2022-07-29T02:24:54.000Z,64.46
2022-07-29T02:25:54.000Z,64.87
2022-07-29T02:26:54.000Z,64.26
2022-07-29T02:27:54.000Z,64.87
2022-07-29T02:28:54.000Z,65.67
2022-07-29T02:29:54.000Z,65.17
2022-07-29T02:30:54.000Z,65.57
2022-07-29T02:31:54.000Z,66.18
2022-07-29T02:32:54.000Z,66.18
2022-07-29T02:33:54.000Z,66.38
2022-07-29T02:34:54.000Z,66.48
2022-07-29T02:35:54.000Z,66.69
2022-07-29T02:36:54.000Z,66.31
2022-07-29T02:37:54.000Z,67.02
2022-07-29T02:38:54.000Z,67.52
2022-07-29T02:39:54.000Z,68.23
2022-07-29T02:40:54.000Z,67.93
2022-07-29T02:41:54.000Z,68.43
2022-07-29T02:42:54.000Z,68.03
2022-07-29T02:43:54.000Z,68.43
2022-07-29T02:44:54.000Z,66.82
2022-07-29T02:45:54.000Z,66.82
2022-07-29T02:46:54.000Z,67.63
2022-07-29T02:47:54.000Z,67.02
2022-07-29T02:48:54.000Z,67.22
2022-07-29T02:49:54.000Z,67.32
2022-07-29T02:50:54.000Z,66.92
2022-07-29T02:51:54.000Z,66.72
2022-07-29T02:52:54.000Z,66.61
2022-07-29T02:53:54.000Z,66.82
2022-07-29T02:54:54.000Z,66.72
2022-07-29T02:55:54.000Z,66.82
2022-07-29T02:56:54.000Z,66.92
2022-07-29T02:57:54.000Z,66.92
2022-07-29T02:58:54.000Z,66.82
2022-07-29T02:59:54.000Z,66.82
2022-07-29T03:00:54.000Z,66.82
2022-07-29T03:01:54.000Z,66.72
2022-07-29T03:02:54.000Z,66.72
2022-07-29T03:03:54.000Z,66.92
2022-07-29T03:04:54.000Z,66.95
2022-07-29T03:05:54.000Z,67.25
2022-07-29T03:06:54.000Z,67.35
2022-07-29T03:07:54.000Z,67.02
2022-07-29T03:08:54.000Z,67.15
2022-07-29T03:09:54.000Z,67.35
2022-07-29T03:10:54.000Z,67.35
2022-07-29T03:11:54.000Z,67.55
2022-07-29T03:12:54.000Z,68.16
2022-07-29T03:13:54.000Z,67.76
2022-07-29T03:14:54.000Z,67.86
2022-07-29T03:15:54.000Z,67.86
2022-07-29T03:16:54.000Z,68.16
2022-07-29T03:17:54.000Z,68.06
2022-07-29T03:18:54.000Z,68.16
2022-07-29T03:19:54.000Z,67.46
2022-07-29T03:20:54.000Z,67.55
2022-07-29T03:21:54.000Z,68.06
2022-07-29T03:22:54.000Z,68.16
2022-07-29T03:23:54.000Z,67.96
2022-07-29T03:24:54.000Z,68.67
2022-07-29T03:25:54.000Z,68.77
2022-07-29T03:26:54.000Z,68.47
2022-07-29T03:27:54.000Z,68.57
2022-07-29T03:27:54.000Z,68.57
2022-07-29T03:28:53.000Z,68.16
2022-07-29T03:28:53.000Z,68.16
2022-07-29T03:29:53.000Z,68.87
2022-07-29T03:29:53.000Z,68.87
2022-07-29T03:30:53.000Z,68.77
2022-07-29T03:30:53.000Z,68.77
2022-07-29T03:31:53.000Z,68.97
2022-07-29T03:31:53.000Z,68.97
2022-07-29T03:32:53.000Z,68.77
2022-07-29T03:33:53.000Z,68.57
2022-07-29T03:34:53.000Z,68.57
2022-07-29T03:35:53.000Z,68.67
2022-07-29T03:36:53.000Z,68.77
2022-07-29T03:37:53.000Z,69.07
2022-07-29T03:38:53.000Z,69.38
2022-07-29T03:39:53.000Z,69.48
2022-07-29T03:40:53.000Z,69.38
2022-07-29T03:41:53.000Z,69.48
2022-07-29T03:42:53.000Z,69.48
2022-07-29T03:43:53.000Z,69.38
2022-07-29T03:44:53.000Z,69.18
2022-07-29T03:45:53.000Z,68.97
2022-07-29T03:46:53.000Z,68.57
2022-07-29T03:47:53.000Z,68.57
2022-07-29T03:48:53.000Z,68.87
2022-07-29T03:49:53.000Z,68.67
2022-07-29T03:50:53.000Z,69.21
2022-07-29T03:51:53.000Z,69.10
2022-07-29T03:52:53.000Z,69.31
2022-07-29T03:53:53.000Z,69.01
2022-07-29T03:54:53.000Z,69.21
2022-07-29T03:55:53.000Z,68.90
2022-07-29T03:56:53.000Z,68.90
2022-07-29T03:57:53.000Z,68.80
2022-07-29T03:58:53.000Z,69.01
2022-07-29T03:59:53.000Z,69.10
2022-07-29T04:00:53.000Z,69.31
2022-07-29T04:01:53.000Z,69.31
2022-07-29T04:02:53.000Z,69.21
2022-07-29T04:03:53.000Z,69.10
2022-07-29T04:04:53.000Z,69.61
2022-07-29T04:05:53.000Z,69.51
2022-07-29T04:06:53.000Z,69.71
2022-07-29T04:07:53.000Z,69.81
2022-07-29T04:08:53.000Z,69.61
2022-07-29T04:09:53.000Z,69.61
2022-07-29T04:10:53.000Z,69.61
2022-07-29T04:11:53.000Z,69.10
2022-07-29T04:12:53.000Z,69.01
2022-07-29T04:13:53.000Z,69.61
2022-07-29T04:14:53.000Z,70.18
2022-07-29T04:15:53.000Z,70.29
2022-07-29T04:16:53.000Z,70.09
2022-07-29T04:17:53.000Z,69.98
2022-07-29T04:18:53.000Z,70.09
2022-07-29T04:19:53.000Z,70.18
2022-07-29T04:20:53.000Z,69.98
2022-07-29T04:21:53.000Z,69.89
2022-07-29T04:22:53.000Z,70.18
2022-07-29T04:23:53.000Z,69.89
2022-07-29T04:24:53.000Z,69.68
2022-07-29T04:25:53.000Z,69.55
2022-07-29T04:26:53.000Z,69.14
2022-07-29T04:27:53.000Z,68.74
2022-07-29T04:28:53.000Z,69.24
2022-07-29T04:29:53.000Z,69.14
2022-07-29T04:30:53.000Z,69.34
2022-07-29T04:31:53.000Z,68.84
2022-07-29T04:32:53.000Z,68.71
2022-07-29T04:33:53.000Z,68.60
2022-07-29T04:34:53.000Z,68.60
2022-07-29T04:35:53.000Z,68.10
2022-07-29T04:36:53.000Z,68.10
2022-07-29T04:37:53.000Z,68.00
2022-07-29T04:38:53.000Z,67.90
2022-07-29T04:39:53.000Z,67.39
2022-07-29T04:40:53.000Z,67.16
2022-07-29T04:41:53.000Z,67.56
2022-07-29T04:42:53.000Z,67.66
2022-07-29T04:43:53.000Z,67.97
2022-07-29T04:44:53.000Z,65.24
2022-07-29T04:45:53.000Z,65.75
2022-07-29T04:46:53.000Z,65.14
2022-07-29T04:47:53.000Z,65.24
2022-07-29T04:48:53.000Z,65.61
2022-07-29T04:49:53.000Z,65.92
2022-07-29T04:50:53.000Z,66.52
2022-07-29T04:51:53.000Z,66.72
2022-07-29T04:52:53.000Z,66.02
2022-07-29T04:53:53.000Z,64.90
2022-07-29T04:54:53.000Z,65.68
2022-07-29T04:55:53.000Z,65.38
2022-07-29T04:56:53.000Z,65.38
2022-07-29T04:57:53.000Z,65.38
2022-07-29T04:58:53.000Z,65.58
2022-07-29T04:59:53.000Z,66.99
2022-07-29T05:00:53.000Z,66.69
2022-07-29T05:01:53.000Z,65.68
2022-07-29T05:02:52.000Z,65.95
2022-07-29T05:03:52.000Z,65.85
2022-07-29T05:04:52.000Z,65.35
2022-07-29T05:05:52.000Z,65.05
2022-07-29T05:06:52.000Z,65.05
2022-07-29T05:07:52.000Z,64.11
2022-07-29T05:08:52.000Z,63.70
2022-07-29T05:09:52.000Z,63.60
2022-07-29T05:10:52.000Z,64.21
2022-07-29T05:11:52.000Z,63.40
2022-07-29T05:12:52.000Z,63.60
2022-07-29T05:13:52.000Z,63.98
2022-07-29T05:14:52.000Z,62.57
2022-07-29T05:15:52.000Z,62.66
2022-07-29T05:16:52.000Z,62.57
2022-07-29T05:17:52.000Z,62.26
2022-07-29T05:18:52.000Z,62.74
2022-07-29T05:19:52.000Z,62.13
2022-07-29T05:20:52.000Z,63.14
2022-07-29T05:21:52.000Z,62.84
2022-07-29T05:22:52.000Z,62.84
2022-07-29T05:23:52.000Z,63.54
2022-07-29T05:24:52.000Z,62.01
2022-07-29T05:25:52.000Z,62.41
2022-07-29T05:26:52.000Z,62.21
2022-07-29T05:27:52.000Z,62.81
2022-07-29T05:28:52.000Z,61.70
2022-07-29T05:29:52.000Z,61.40
2022-07-29T05:30:52.000Z,61.60
2022-07-29T05:31:52.000Z,61.50
2022-07-29T05:32:52.000Z,62.30
2022-07-29T05:33:52.000Z,61.60
2022-07-29T05:34:52.000Z,61.37
2022-07-29T05:35:52.000Z,61.30
2022-07-29T05:36:52.000Z,62.68
2022-07-29T05:37:52.000Z,62.30
2022-07-29T05:38:52.000Z,61.80
2022-07-29T05:39:52.000Z,61.70
2022-07-29T05:40:52.000Z,62.51
2022-07-29T05:41:52.000Z,61.80
2022-07-29T05:42:52.000Z,61.60
2022-07-29T05:43:52.000Z,60.80
2022-07-29T05:44:52.000Z,62.54
2022-07-29T05:45:52.000Z,63.71
2022-07-29T05:46:52.000Z,64.05
2022-07-29T05:47:52.000Z,63.75
2022-07-29T05:47:52.000Z,63.75
2022-07-29T05:48:52.000Z,63.04
2022-07-29T05:48:52.000Z,63.04
2022-07-29T05:49:52.000Z,62.34
2022-07-29T05:49:52.000Z,62.34
2022-07-29T05:50:52.000Z,62.24
2022-07-29T05:50:52.000Z,62.24
2022-07-29T05:51:52.000Z,61.93
2022-07-29T05:51:52.000Z,61.93
2022-07-29T05:52:52.000Z,62.84
2022-07-29T05:53:52.000Z,62.54
2022-07-29T05:54:52.000Z,62.64
2022-07-29T05:55:52.000Z,62.74
2022-07-29T05:56:52.000Z,63.24
2022-07-29T05:57:52.000Z,62.04
2022-07-29T05:58:52.000Z,62.64
2022-07-29T05:59:52.000Z,62.54
2022-07-29T06:00:52.000Z,61.93
2022-07-29T06:01:52.000Z,63.75
2022-07-29T06:02:52.000Z,62.64
2022-07-29T06:03:52.000Z,63.51
2022-07-29T06:04:52.000Z,62.41
2022-07-29T06:05:52.000Z,63.31
2022-07-29T06:06:52.000Z,62.30
2022-07-29T06:07:52.000Z,63.42
2022-07-29T06:08:52.000Z,61.60
2022-07-29T06:09:52.000Z,61.20
2022-07-29T06:10:52.000Z,60.60
2022-07-29T06:11:52.000Z,61.27
2022-07-29T06:12:52.000Z,62.07
2022-07-29T06:13:52.000Z,60.06
2022-07-29T06:14:52.000Z,60.36
2022-07-29T06:15:52.000Z,59.56
2022-07-29T06:16:52.000Z,59.86
2022-07-29T06:17:52.000Z,60.24
2022-07-29T06:18:52.000Z,59.23
2022-07-29T06:19:52.000Z,59.23
2022-07-29T06:20:52.000Z,60.53
2022-07-29T06:21:52.000Z,58.62
2022-07-29T06:22:52.000Z,59.33
2022-07-29T06:23:52.000Z,59.83
2022-07-29T06:24:52.000Z,58.53
2022-07-29T06:25:52.000Z,58.73
2022-07-29T06:26:52.000Z,58.62
2022-07-29T06:27:52.000Z,58.93
2022-07-29T06:28:52.000Z,59.41
2022-07-29T06:29:51.000Z,59.41
2022-07-29T06:30:51.000Z,59.60
2022-07-29T06:31:51.000Z,59.91
2022-07-29T06:32:51.000Z,58.97
2022-07-29T06:33:51.000Z,56.96
2022-07-29T06:34:51.000Z,58.27
2022-07-29T06:35:51.000Z,57.17
2022-07-29T06:36:51.000Z,56.86
2022-07-29T06:37:51.000Z,57.06
2022-07-29T06:38:51.000Z,57.94
2022-07-29T06:39:51.000Z,57.74
2022-07-29T06:40:51.000Z,56.54
2022-07-29T06:41:51.000Z,56.10
2022-07-29T06:42:51.000Z,57.61
2022-07-29T06:43:51.000Z,56.68
2022-07-29T06:44:51.000Z,57.98
2022-07-29T06:45:51.000Z,57.15
2022-07-29T06:46:51.000Z,55.13
2022-07-29T06:47:51.000Z,55.70
2022-07-29T06:48:51.000Z,55.70
2022-07-29T06:49:51.000Z,54.47
2022-07-29T06:50:51.000Z,55.15
2022-07-29T06:51:51.000Z,53.14
2022-07-29T06:52:51.000Z,52.52
2022-07-29T06:53:51.000Z,51.92
2022-07-29T06:54:51.000Z,51.22
2022-07-29T06:55:51.000Z,50.52
2022-07-29T06:56:51.000Z,51.22
2022-07-29T06:57:51.000Z,51.44
2022-07-29T06:58:51.000Z,52.14
2022-07-29T06:59:51.000Z,52.64
2022-07-29T07:00:51.000Z,52.34
2022-07-29T07:01:51.000Z,52.74
2022-07-29T07:02:51.000Z,53.14
2022-07-29T07:03:51.000Z,52.34
2022-07-29T07:04:51.000Z,53.24
2022-07-29T07:05:51.000Z,53.14
2022-07-29T07:06:51.000Z,52.44
2022-07-29T07:07:51.000Z,53.72
2022-07-29T07:08:51.000Z,53.72
2022-07-29T07:09:51.000Z,52.29
2022-07-29T07:10:51.000Z,51.47
2022-07-29T07:11:51.000Z,52.57
2022-07-29T07:12:51.000Z,50.45
2022-07-29T07:13:51.000Z,50.82
2022-07-29T07:14:51.000Z,49.42
2022-07-29T07:15:51.000Z,49.62
2022-07-29T07:16:51.000Z,50.79
2022-07-29T07:17:51.000Z,51.70
2022-07-29T07:18:51.000Z,49.30
2022-07-29T07:19:51.000Z,50.40
2022-07-29T07:20:51.000Z,49.98
2022-07-29T07:21:51.000Z,49.18
2022-07-29T07:22:51.000Z,48.48
2022-07-29T07:23:51.000Z,48.60
2022-07-29T07:24:51.000Z,48.60
2022-07-29T07:25:51.000Z,49.60
2022-07-29T07:26:51.000Z,50.10
2022-07-29T07:27:51.000Z,49.00
2022-07-29T07:28:51.000Z,52.00
2022-07-29T07:29:51.000Z,52.07
2022-07-29T07:30:51.000Z,51.17
2022-07-29T07:31:51.000Z,48.65
2022-07-29T07:32:51.000Z,48.53
2022-07-29T07:33:51.000Z,49.51
2022-07-29T07:34:51.000Z,48.50
2022-07-29T07:35:51.000Z,49.18
2022-07-29T07:36:51.000Z,49.26
2022-07-29T07:37:51.000Z,48.44
2022-07-29T07:38:51.000Z,47.40
2022-07-29T07:39:51.000Z,47.47
2022-07-29T07:40:51.000Z,43.50
2022-07-29T07:41:51.000Z,45.27
2022-07-29T07:42:51.000Z,45.17
2022-07-29T07:43:51.000Z,45.45
2022-07-29T07:44:51.000Z,44.15
2022-07-29T07:45:51.000Z,43.26
2022-07-29T07:46:51.000Z,44.35
2022-07-29T07:47:51.000Z,42.96
2022-07-29T07:48:51.000Z,43.08
2022-07-29T07:49:51.000Z,43.98
2022-07-29T07:50:51.000Z,44.59
2022-07-29T07:51:51.000Z,44.99
2022-07-29T07:52:51.000Z,45.89
2022-07-29T07:53:51.000Z,44.71
2022-07-29T07:54:51.000Z,44.62
2022-07-29T07:55:50.000Z,45.71
2022-07-29T07:56:50.000Z,44.92
2022-07-29T07:57:50.000Z,43.82
2022-07-29T07:58:50.000Z,45.11
2022-07-29T07:59:50.000Z,45.81
2022-07-29T08:00:50.000Z,46.01
2022-07-29T08:01:50.000Z,44.59
2022-07-29T08:02:50.000Z,44.40
2022-07-29T08:03:50.000Z,45.79
2022-07-29T08:04:50.000Z,43.70
2022-07-29T08:05:50.000Z,43.20
2022-07-29T08:06:50.000Z,44.00
2022-07-29T08:07:50.000Z,43.78
2022-07-29T08:08:50.000Z,43.68
2022-07-29T08:09:50.000Z,44.89
2022-07-29T08:10:50.000Z,45.27
2022-07-29T08:11:50.000Z,43.90
2022-07-29T08:12:50.000Z,45.89
2022-07-29T08:13:50.000Z,44.79
2022-07-29T08:14:50.000Z,45.39
2022-07-29T08:15:50.000Z,45.98
2022-07-29T08:16:50.000Z,45.09
2022-07-29T08:17:50.000Z,45.09
2022-07-29T08:18:50.000Z,43.70
2022-07-29T08:19:50.000Z,44.99
2022-07-29T08:20:50.000Z,43.80
2022-07-29T08:21:50.000Z,46.28
2022-07-29T08:22:50.000Z,44.20
2022-07-29T08:23:50.000Z,45.59
2022-07-29T08:24:50.000Z,45.89
2022-07-29T08:25:50.000Z,47.17
2022-07-29T08:26:50.000Z,45.09
2022-07-29T08:27:50.000Z,47.45
2022-07-29T08:28:50.000Z,45.86
2022-07-29T08:29:50.000Z,45.07
2022-07-29T08:30:50.000Z,46.24
2022-07-29T08:31:50.000Z,44.95
2022-07-29T08:32:50.000Z,46.61
2022-07-29T08:33:50.000Z,45.03
2022-07-29T08:34:50.000Z,45.30
2022-07-29T08:35:50.000Z,45.50
2022-07-29T08:36:50.000Z,44.19
2022-07-29T08:37:50.000Z,43.00
2022-07-29T08:38:50.000Z,43.48
2022-07-29T08:39:50.000Z,44.35
2022-07-29T08:40:50.000Z,44.24
2022-07-29T08:41:50.000Z,42.57
2022-07-29T08:42:50.000Z,41.55
2022-07-29T08:43:50.000Z,41.53
2022-07-29T08:44:50.000Z,41.93
2022-07-29T08:45:50.000Z,41.14
2022-07-29T08:46:50.000Z,41.04
2022-07-29T08:47:50.000Z,40.82
2022-07-29T08:48:50.000Z,40.50
2022-07-29T08:49:50.000Z,42.38
2022-07-29T08:50:50.000Z,39.52
2022-07-29T08:51:50.000Z,39.79
2022-07-29T08:52:50.000Z,39.20
2022-07-29T08:53:50.000Z,41.17
2022-07-29T08:54:50.000Z,39.97
2022-07-29T08:55:50.000Z,39.18
2022-07-29T08:56:50.000Z,39.95
2022-07-29T08:57:50.000Z,39.46
2022-07-29T08:58:50.000Z,39.73
2022-07-29T08:59:50.000Z,40.11
2022-07-29T09:00:50.000Z,40.29
2022-07-29T09:01:50.000Z,38.12
2022-07-29T09:02:50.000Z,38.99
2022-07-29T09:03:50.000Z,37.91
2022-07-29T09:04:50.000Z,37.79
2022-07-29T09:05:50.000Z,36.99
2022-07-29T09:06:50.000Z,36.30
2022-07-29T09:07:50.000Z,35.78
2022-07-29T09:08:50.000Z,35.49
2022-07-29T09:09:50.000Z,35.88
2022-07-29T09:10:50.000Z,36.87
2022-07-29T09:11:50.000Z,35.88
2022-07-29T09:12:50.000Z,35.30
2022-07-29T09:13:50.000Z,36.85
2022-07-29T09:14:50.000Z,35.75
2022-07-29T09:15:50.000Z,36.16
2022-07-29T09:16:50.000Z,36.05
2022-07-29T09:17:50.000Z,35.66
2022-07-29T09:18:50.000Z,34.26
2022-07-29T09:19:50.000Z,35.14
2022-07-29T09:20:50.000Z,36.13
2022-07-29T09:21:50.000Z,34.56
2022-07-29T09:22:50.000Z,35.83
2022-07-29T09:23:50.000Z,35.42
2022-07-29T09:24:50.000Z,35.11
2022-07-29T09:25:50.000Z,34.92
2022-07-29T09:26:50.000Z,34.13
2022-07-29T09:27:50.000Z,33.94
2022-07-29T09:28:50.000Z,33.44
2022-07-29T09:29:50.000Z,34.13
2022-07-29T09:30:50.000Z,34.81
2022-07-29T09:31:50.000Z,33.62
2022-07-29T09:32:50.000Z,33.33
2022-07-29T09:33:49.000Z,33.14
2022-07-29T09:34:49.000Z,33.54
2022-07-29T09:35:49.000Z,32.66
2022-07-29T09:36:49.000Z,34.31
2022-07-29T09:37:49.000Z,34.11
2022-07-29T09:38:49.000Z,33.04
2022-07-29T09:39:49.000Z,34.31
2022-07-29T09:40:49.000Z,33.22
2022-07-29T09:41:49.000Z,32.82
2022-07-29T09:42:49.000Z,33.80
2022-07-29T09:43:49.000Z,34.00
2022-07-29T09:44:49.000Z,34.77
2022-07-29T09:45:49.000Z,33.29
2022-07-29T09:46:49.000Z,34.08
2022-07-29T09:47:49.000Z,33.38
2022-07-29T09:48:49.000Z,33.09
2022-07-29T09:49:49.000Z,33.48
2022-07-29T09:50:49.000Z,32.60
2022-07-29T09:51:49.000Z,30.91
2022-07-29T09:52:49.000Z,32.58
2022-07-29T09:53:49.000Z,32.29
2022-07-29T09:54:49.000Z,32.87
2022-07-29T09:55:49.000Z,33.45
2022-07-29T09:56:49.000Z,33.43
2022-07-29T09:57:49.000Z,31.16
2022-07-29T09:58:49.000Z,32.53
2022-07-29T09:59:49.000Z,31.16
2022-07-29T10:00:49.000Z,30.68
2022-07-29T10:01:49.000Z,30.87
2022-07-29T10:02:49.000Z,30.87
2022-07-29T10:03:49.000Z,31.85
2022-07-29T10:04:49.000Z,31.07
2022-07-29T10:05:49.000Z,31.95
2022-07-29T10:06:49.000Z,31.54
2022-07-29T10:07:49.000Z,31.74
2022-07-29T10:07:49.000Z,31.74
2022-07-29T10:08:49.000Z,30.55
2022-07-29T10:08:49.000Z,30.55
2022-07-29T10:09:49.000Z,30.94
2022-07-29T10:09:49.000Z,30.94
2022-07-29T10:10:49.000Z,29.86
2022-07-29T10:10:49.000Z,29.86
2022-07-29T10:11:49.000Z,30.45
2022-07-29T10:11:49.000Z,30.45
2022-07-29T10:12:49.000Z,30.27
2022-07-29T10:13:49.000Z,29.59
2022-07-29T10:14:49.000Z,30.69
2022-07-29T10:15:49.000Z,31.77
2022-07-29T10:16:49.000Z,30.98
2022-07-29T10:17:49.000Z,31.77
2022-07-29T10:18:49.000Z,31.68
2022-07-29T10:19:49.000Z,31.59
2022-07-29T10:20:49.000Z,30.80
2022-07-29T10:21:49.000Z,32.76
2022-07-29T10:22:49.000Z,29.83
2022-07-29T10:23:49.000Z,30.82
2022-07-29T10:24:49.000Z,32.46
2022-07-29T10:25:49.000Z,32.07
2022-07-29T10:26:49.000Z,31.49
2022-07-29T10:27:49.000Z,30.61
2022-07-29T10:28:49.000Z,28.77
2022-07-29T10:29:49.000Z,29.66
2022-07-29T10:30:49.000Z,31.51
2022-07-29T10:31:49.000Z,31.00
2022-07-29T10:32:49.000Z,30.71
2022-07-29T10:33:49.000Z,30.51
2022-07-29T10:34:49.000Z,29.03
2022-07-29T10:35:49.000Z,29.73
2022-07-29T10:36:49.000Z,30.59
2022-07-29T10:37:49.000Z,29.91
2022-07-29T10:38:49.000Z,28.82
2022-07-29T10:39:49.000Z,28.64
2022-07-29T10:40:49.000Z,29.50
2022-07-29T10:41:49.000Z,27.55
2022-07-29T10:42:49.000Z,28.63
2022-07-29T10:43:49.000Z,28.82
2022-07-29T10:44:49.000Z,29.20
2022-07-29T10:45:49.000Z,30.18
2022-07-29T10:46:49.000Z,30.65
2022-07-29T10:47:49.000Z,28.59
2022-07-29T10:48:49.000Z,28.32
2022-07-29T10:49:49.000Z,29.59
2022-07-29T10:50:49.000Z,29.21
2022-07-29T10:51:49.000Z,28.82
2022-07-29T10:52:49.000Z,28.72
2022-07-29T10:53:49.000Z,29.90
2022-07-29T10:54:49.000Z,26.76
2022-07-29T10:55:49.000Z,27.55
2022-07-29T10:56:49.000Z,29.21
2022-07-29T10:57:49.000Z,28.81
2022-07-29T10:58:49.000Z,28.89
2022-07-29T10:59:49.000Z,27.91
2022-07-29T11:00:49.000Z,29.67
2022-07-29T11:01:49.000Z,28.19
2022-07-29T11:02:49.000Z,29.54
2022-07-29T11:03:49.000Z,30.90
2022-07-29T11:04:49.000Z,28.54
2022-07-29T11:05:49.000Z,26.87
2022-07-29T11:06:49.000Z,25.99
2022-07-29T11:07:49.000Z,26.67
2022-07-29T11:08:49.000Z,25.89
2022-07-29T11:09:49.000Z,29.21
2022-07-29T11:10:49.000Z,27.75
2022-07-29T11:11:49.000Z,26.08
2022-07-29T11:12:49.000Z,26.09
2022-07-29T11:13:49.000Z,25.42
2022-07-29T11:14:49.000Z,26.79
2022-07-29T11:15:49.000Z,27.28
2022-07-29T11:16:48.000Z,26.59
2022-07-29T11:17:48.000Z,25.13
2022-07-29T11:18:48.000Z,27.47
2022-07-29T11:19:48.000Z,27.26
2022-07-29T11:20:48.000Z,26.39
2022-07-29T11:21:48.000Z,26.58
2022-07-29T11:22:48.000Z,28.22
2022-07-29T11:23:48.000Z,26.55
2022-07-29T11:24:48.000Z,25.09
2022-07-29T11:25:48.000Z,25.69
2022-07-29T11:26:48.000Z,27.45
2022-07-29T11:27:48.000Z,25.60
2022-07-29T11:28:48.000Z,26.20
2022-07-29T11:29:48.000Z,25.90
2022-07-29T11:30:48.000Z,25.12
2022-07-29T11:31:48.000Z,25.10
2022-07-29T11:32:48.000Z,26.37
2022-07-29T11:33:48.000Z,26.37
2022-07-29T11:34:48.000Z,26.26
2022-07-29T11:35:48.000Z,24.98
2022-07-29T11:36:48.000Z,24.02
2022-07-29T11:37:48.000Z,23.63
2022-07-29T11:38:48.000Z,24.79
2022-07-29T11:39:48.000Z,25.27
2022-07-29T11:40:48.000Z,25.37
2022-07-29T11:41:48.000Z,25.37
2022-07-29T11:42:48.000Z,24.68
2022-07-29T11:42:48.000Z,24.68
2022-07-29T11:43:48.000Z,24.08
2022-07-29T11:43:48.000Z,24.08
2022-07-29T11:44:48.000Z,24.28
2022-07-29T11:44:48.000Z,24.28
2022-07-29T11:45:48.000Z,24.27
2022-07-29T11:45:48.000Z,24.27
2022-07-29T11:46:48.000Z,24.28
2022-07-29T11:46:48.000Z,24.28
2022-07-29T11:47:48.000Z,25.07
2022-07-29T11:48:48.000Z,24.87
2022-07-29T11:49:48.000Z,24.77
2022-07-29T11:50:48.000Z,24.56
2022-07-29T11:51:48.000Z,23.00
2022-07-29T11:54:06.000Z,23.59
2022-07-29T11:54:06.000Z,23.87
2022-07-29T11:55:06.000Z,23.88
2022-07-29T11:56:06.000Z,23.13
2022-07-29T11:57:06.000Z,24.30
2022-07-29T11:58:06.000Z,23.91
2022-07-29T11:59:06.000Z,24.60
2022-07-29T12:00:06.000Z,24.00
2022-07-29T12:01:06.000Z,23.91
2022-07-29T12:02:06.000Z,24.00
2022-07-29T12:03:06.000Z,24.29
2022-07-29T12:04:06.000Z,23.32
2022-07-29T12:05:06.000Z,24.58
2022-07-29T12:06:06.000Z,24.40
2022-07-29T12:07:06.000Z,24.30
2022-07-29T12:08:06.000Z,24.89
2022-07-29T12:09:06.000Z,25.38
2022-07-29T12:10:06.000Z,25.78
2022-07-29T12:11:06.000Z,24.71
2022-07-29T12:12:06.000Z,25.38
2022-07-29T12:19:09.000Z,24.78
2022-07-29T12:19:09.000Z,25.35
2022-07-29T12:20:09.000Z,24.76
2022-07-29T12:21:09.000Z,24.56
2022-07-29T12:22:09.000Z,23.97
2022-07-29T12:23:09.000Z,24.28
2022-07-29T12:23:09.000Z,24.28
2022-07-29T12:24:09.000Z,24.68
2022-07-29T12:24:09.000Z,24.68
2022-07-29T12:25:09.000Z,24.88
2022-07-29T12:25:09.000Z,24.88
2022-07-29T12:26:09.000Z,23.82
2022-07-29T12:26:09.000Z,23.82
2022-07-29T12:27:09.000Z,24.21
2022-07-29T12:27:09.000Z,24.21
2022-07-29T12:28:09.000Z,25.38
2022-07-29T12:29:09.000Z,24.33
2022-07-29T12:30:09.000Z,25.70
2022-07-29T12:31:09.000Z,25.42
2022-07-29T12:32:09.000Z,25.73
2022-07-29T12:33:09.000Z,26.62